Flugwetter

METAR EDDW
2022/08/10 11:20 EDDW 101120Z AUTO 07006KT 020V140 CAVOK 26/12 Q1027 NOSIG
TAF EDDW
2022/08/10 12:27 TAF EDDW 101100Z 1012/1112 05005KT CAVOK PROB30 TEMPO 1015/1019 04010KT BECMG 1019/1021 VRB02KT BECMG 1106/1108 07005KT
METAR EDDH
2022/08/10 11:20 EDDH 101120Z AUTO VRB03KT CAVOK 25/11 Q1028 TEMPO 03005KT
TAF EDDH
2022/08/10 12:27 TAF EDDH 101100Z 1012/1118 06005KT 9999 FEW045 PROB30 TEMPO 1015/1019 05010KT BECMG 1019/1021 VRB03KT BECMG 1106/1108 08005KT PROB30 TEMPO 1115/1118 07010KT
METAR VRMM
2022/08/10 11:00 VRMM 101100Z 31005KT 9999 FEW018TCU BKN270 30/25 Q1006 TEMPO 5000 SHRA
TAF VRMM
2022/08/10 12:51 TAF VRMM 101100Z 1012/1118 32010KT 9999 FEW018TCU TEMPO 1012/1018 5000 SHRA FEW018CB

Quelle:

Bereitgestellt von den Servern der NOAA tgftp.nws.noaa.gov
Alle Angaben ohne Gewähr